Thunder radar more information blitzortung!


Radar de pluja more information rain snow radar


Visita la nostra xarxa de llocs de meteo:

Template documentation
and downloads

And another site



No particular awareness of the weather is required.    There are no Weather-warnings

Pagina Historial Weather Underground text

Diari Resum May 19, 2017 Unitats:  Mètric    Imperial   Tant
« Previous Dia
SegĂźent Dia »
Diari Setmana Mensual Anual Personalitzada
  Maxima: Minima: Media:
Temperatura: 23.2 °C 9.5 °C 17.8 °C
Punt de rosada: 9.6 °C 0.8 °C 6.2 °C
Humitat: 75 % 28 % 49 %
Wind Speed: 18.5 km/h 0.0 km/h 7.5 km/h
RĂ fegues de vent: 18.5 km/h - -
Vent:- - South
Pression baro: 1021.9 hPa 1015.8 hPa -
Precipitacions: 1.3 mm    
Historical Graphs
 
 
Dades de taula per May 19, 2017
Temps Temperatura Punt de rosada Pression baro Vent Wind Speed RĂ fegues de vent Humitat Rainfall Rate (Hourly)
00:00 10.0 °C 4.8 °C 1017.8 hPa NNE 1.6 km/h 4.8 km/h 70 % 0.0 mm
00:04 13.0 °C 7.4 °C 1015.8 hPa SSW 7.4 km/h 7.4 km/h 69 % 0.0 mm
00:10 9.8 °C 4.6 °C 1017.8 hPa Calm   3.2 km/h 70 % 0.0 mm
00:20 10.0 °C 4.8 °C 1017.8 hPa NNE 1.6 km/h 3.2 km/h 70 % 0.0 mm
00:30 9.9 °C 4.7 °C 1017.8 hPa NE 1.6 km/h 3.2 km/h 70 % 0.0 mm
00:40 9.9 °C 4.7 °C 1017.8 hPa NE 1.6 km/h 4.8 km/h 70 % 0.0 mm
00:50 9.8 °C 4.4 °C 1017.8 hPa SW 1.6 km/h 6.4 km/h 69 % 0.0 mm
01:00 9.6 °C 4.4 °C 1017.8 hPa Calm   1.6 km/h 70 % 0.0 mm
01:10 9.6 °C 4.4 °C 1017.8 hPa Calm   1.6 km/h 70 % 0.0 mm
01:20 9.5 °C 4.5 °C 1017.8 hPa Calm   1.6 km/h 71 % 0.0 mm
01:30 9.5 °C 4.3 °C 1018.8 hPa NNE 1.6 km/h 3.2 km/h 70 % 0.0 mm
01:40 9.7 °C 4.3 °C 1018.8 hPa WNW 4.8 km/h 6.4 km/h 69 % 0.0 mm
01:50 9.9 °C 4.7 °C 1018.8 hPa West 1.6 km/h 4.8 km/h 70 % 0.0 mm
02:00 10.0 °C 4.6 °C 1018.8 hPa WSW 3.2 km/h 3.2 km/h 69 % 0.0 mm
02:10 10.1 °C 4.7 °C 1019.9 hPa West 3.2 km/h 4.8 km/h 69 % 0.0 mm
02:20 10.2 °C 4.8 °C 1019.9 hPa WSW 3.2 km/h 3.2 km/h 69 % 0.0 mm
02:30 10.5 °C 5.1 °C 1018.8 hPa WSW 1.6 km/h 4.8 km/h 69 % 0.0 mm
02:40 11.0 °C 5.5 °C 1019.9 hPa SW 1.6 km/h 4.8 km/h 69 % 0.0 mm
02:50 11.0 °C 5.3 °C 1019.9 hPa SW 3.2 km/h 6.4 km/h 68 % 0.0 mm
03:00 11.3 °C 5.6 °C 1019.9 hPa SW 3.2 km/h 4.8 km/h 68 % 0.0 mm
03:10 11.6 °C 5.7 °C 1019.9 hPa WSW 8.0 km/h 8.0 km/h 67 % 0.0 mm
03:20 11.9 °C 5.9 °C 1019.9 hPa WSW 3.2 km/h 11.3 km/h 67 % 0.0 mm
03:30 11.8 °C 5.7 °C 1019.9 hPa WSW 9.7 km/h 9.7 km/h 66 % 0.0 mm
03:40 12.0 °C 5.8 °C 1019.9 hPa WSW 4.8 km/h 9.7 km/h 66 % 0.0 mm
03:50 12.2 °C 5.8 °C 1019.9 hPa WSW 4.8 km/h 12.9 km/h 65 % 0.0 mm
04:00 12.3 °C 5.9 °C 1019.9 hPa WSW 4.8 km/h 11.3 km/h 65 % 0.0 mm
04:10 12.8 °C 6.4 °C 1019.9 hPa WSW 8.0 km/h 9.7 km/h 65 % 0.0 mm
04:20 13.0 °C 6.3 °C 1019.9 hPa WSW 9.7 km/h 9.7 km/h 64 % 0.0 mm
04:30 13.5 °C 6.8 °C 1019.9 hPa WSW 4.8 km/h 8.0 km/h 64 % 0.0 mm
04:40 13.6 °C 6.9 °C 1019.9 hPa WSW 9.7 km/h 9.7 km/h 64 % 0.0 mm
04:50 13.8 °C 6.9 °C 1019.9 hPa WSW 3.2 km/h 8.0 km/h 63 % 0.0 mm
05:00 14.1 °C 6.9 °C 1020.9 hPa WSW 4.8 km/h 9.7 km/h 62 % 0.0 mm
05:10 14.4 °C 7.2 °C 1019.9 hPa WSW 4.8 km/h 9.7 km/h 62 % 0.0 mm
05:20 14.7 °C 7.3 °C 1019.9 hPa WSW 8.0 km/h 9.7 km/h 61 % 0.0 mm
05:30 15.2 °C 7.7 °C 1020.9 hPa SW 3.2 km/h 6.4 km/h 61 % 0.0 mm
10:38 15.6 °C 7.6 °C 1020.9 hPa WSW 7.4 km/h 7.4 km/h 59 % 0.0 mm
10:40 15.7 °C 7.7 °C 1020.9 hPa West 9.3 km/h 9.3 km/h 59 % 0.0 mm
10:45 15.9 °C 7.9 °C 1020.9 hPa SW 7.4 km/h 7.4 km/h 59 % 0.0 mm
10:50 16.4 °C 8.1 °C 1020.9 hPa WNW 3.7 km/h 3.7 km/h 58 % 0.0 mm
10:55 16.2 °C 7.4 °C 1020.9 hPa WSW 9.3 km/h 9.3 km/h 56 % 0.0 mm
11:00 16.4 °C 7.6 °C 1020.9 hPa West 12.6 km/h 12.6 km/h 56 % 0.0 mm
11:05 16.7 °C 7.9 °C 1020.9 hPa WSW 5.6 km/h 5.6 km/h 56 % 0.0 mm
11:10 16.3 °C 6.9 °C 1020.9 hPa WSW 11.1 km/h 11.1 km/h 54 % 0.0 mm
11:15 16.5 °C 7.2 °C 1020.9 hPa NNW 9.3 km/h 9.3 km/h 54 % 0.0 mm
11:20 16.6 °C 7.0 °C 1020.9 hPa West 9.3 km/h 9.3 km/h 53 % 0.0 mm
11:25 16.9 °C 7.3 °C 1020.9 hPa NW 14.8 km/h 14.8 km/h 53 % 0.0 mm
11:30 17.3 °C 7.3 °C 1020.9 hPa SW 7.4 km/h 7.4 km/h 52 % 0.0 mm
11:35 17.5 °C 7.6 °C 1020.9 hPa South 5.6 km/h 5.6 km/h 52 % 0.0 mm
11:40 17.9 °C 7.9 °C 1020.9 hPa NNE 5.0 km/h 5.0 km/h 52 % 0.0 mm
11:45 18.2 °C 7.9 °C 1020.9 hPa NW 9.3 km/h 9.3 km/h 51 % 0.0 mm
11:50 18.2 °C 7.9 °C 1020.9 hPa NNE 12.2 km/h 12.2 km/h 51 % 0.0 mm
11:55 18.2 °C 7.9 °C 1020.9 hPa ENE 7.4 km/h 7.4 km/h 51 % 0.0 mm
12:00 18.8 °C 8.2 °C 1020.9 hPa East 5.6 km/h 5.6 km/h 50 % 0.0 mm
12:05 18.3 °C 7.7 °C 1020.9 hPa South 8.7 km/h 8.7 km/h 50 % 0.0 mm
12:10 18.3 °C 7.7 °C 1020.9 hPa SSE 5.6 km/h 5.6 km/h 50 % 0.0 mm
12:15 18.9 °C 8.2 °C 1020.9 hPa SSW 10.3 km/h 10.3 km/h 50 % 0.0 mm
12:20 19.0 °C 8.1 °C 1020.9 hPa SSW 13.0 km/h 13.0 km/h 49 % 0.0 mm
12:25 19.6 °C 8.6 °C 1020.9 hPa SW 3.7 km/h 3.7 km/h 49 % 0.0 mm
12:30 19.7 °C 8.4 °C 1020.9 hPa SSE 13.0 km/h 13.0 km/h 48 % 0.0 mm
12:35 19.3 °C 8.0 °C 1020.9 hPa SW 7.4 km/h 7.4 km/h 48 % 0.0 mm
12:40 20.0 °C 8.7 °C 1020.9 hPa SSE 3.7 km/h 3.7 km/h 48 % 0.0 mm
12:45 20.2 °C 8.8 °C 1020.9 hPa East 4.2 km/h 4.2 km/h 48 % 0.0 mm
12:50 20.4 °C 9.0 °C 1020.9 hPa South 9.3 km/h 9.3 km/h 48 % 0.0 mm
12:55 20.5 °C 8.8 °C 1019.9 hPa South 7.9 km/h 7.9 km/h 47 % 0.0 mm
13:00 20.8 °C 9.4 °C 1019.9 hPa SW 6.1 km/h 6.1 km/h 48 % 0.0 mm
13:05 20.1 °C 8.1 °C 1019.9 hPa East 3.7 km/h 3.7 km/h 46 % 0.0 mm
13:10 20.2 °C 8.5 °C 1019.9 hPa SSE 9.3 km/h 9.3 km/h 47 % 0.0 mm
13:15 20.5 °C 8.5 °C 1019.9 hPa ESE 9.3 km/h 9.3 km/h 46 % 0.0 mm
13:20 20.1 °C 8.1 °C 1019.9 hPa West 13.7 km/h 13.7 km/h 46 % 0.0 mm
13:25 20.5 °C 8.5 °C 1019.9 hPa SSW 6.9 km/h 6.9 km/h 46 % 0.0 mm
13:30 21.3 °C 8.9 °C 1019.9 hPa SSW 5.6 km/h 5.6 km/h 45 % 0.0 mm
13:35 21.0 °C 7.9 °C 1019.9 hPa West 11.1 km/h 11.1 km/h 43 % 0.0 mm
13:40 21.2 °C 7.8 °C 1018.8 hPa North 7.4 km/h 7.4 km/h 42 % 0.0 mm
13:45 21.8 °C 7.9 °C 1018.8 hPa NE 7.4 km/h 7.4 km/h 41 % 0.0 mm
13:50 21.7 °C 7.9 °C 1018.8 hPa NW 7.9 km/h 7.9 km/h 41 % 0.0 mm
13:55 21.7 °C 7.9 °C 1017.8 hPa WSW 9.3 km/h 9.3 km/h 41 % 0.0 mm
14:00 21.8 °C 7.6 °C 1017.8 hPa WSW 7.4 km/h 7.4 km/h 40 % 0.0 mm
14:05 22.0 °C 7.8 °C 1017.8 hPa WSW 9.3 km/h 9.3 km/h 40 % 0.0 mm
14:10 21.7 °C 6.8 °C 1017.8 hPa WNW 9.3 km/h 9.3 km/h 38 % 0.0 mm
14:15 21.8 °C 6.4 °C 1017.8 hPa SW 13.0 km/h 13.0 km/h 37 % 0.0 mm
14:20 22.0 °C 6.6 °C 1017.8 hPa ESE 11.1 km/h 11.1 km/h 37 % 0.0 mm
14:25 21.9 °C 6.2 °C 1017.8 hPa NNE 9.3 km/h 9.3 km/h 36 % 0.0 mm
14:30 22.3 °C 6.5 °C 1017.8 hPa WSW 10.0 km/h 10.0 km/h 36 % 0.0 mm
14:35 22.2 °C 6.4 °C 1017.8 hPa SW 12.6 km/h 12.6 km/h 36 % 0.0 mm
14:40 22.1 °C 5.9 °C 1017.8 hPa West 7.4 km/h 7.4 km/h 35 % 0.0 mm
14:45 22.4 °C 6.2 °C 1017.8 hPa West 13.0 km/h 13.0 km/h 35 % 0.0 mm
14:50 22.5 °C 5.8 °C 1017.8 hPa East 9.3 km/h 9.3 km/h 34 % 0.0 mm
14:55 22.8 °C 6.6 °C 1017.8 hPa SSE 9.3 km/h 9.3 km/h 35 % 0.0 mm
15:00 22.8 °C 6.6 °C 1017.8 hPa ENE 7.4 km/h 7.4 km/h 35 % 0.0 mm
15:05 22.2 °C 5.6 °C 1017.8 hPa West 9.3 km/h 9.3 km/h 34 % 0.0 mm
15:10 22.7 °C 6.0 °C 1017.8 hPa West 13.0 km/h 13.0 km/h 34 % 0.0 mm
15:15 22.9 °C 6.2 °C 1017.8 hPa NNW 9.3 km/h 9.3 km/h 34 % 0.0 mm
15:20 22.6 °C 5.9 °C 1017.8 hPa WSW 9.3 km/h 9.3 km/h 34 % 0.0 mm
15:25 22.5 °C 5.8 °C 1017.8 hPa SW 7.4 km/h 7.4 km/h 34 % 0.0 mm
15:30 22.3 °C 6.1 °C 1017.8 hPa South 9.3 km/h 9.3 km/h 35 % 0.0 mm
15:35 22.2 °C 6.4 °C 1017.8 hPa South 9.3 km/h 9.3 km/h 36 % 0.0 mm
15:40 22.0 °C 6.2 °C 1017.8 hPa WSW 11.9 km/h 11.9 km/h 36 % 0.0 mm
15:41 22.0 °C 6.2 °C 1017.8 hPa SW 11.1 km/h 11.1 km/h 36 % 0.0 mm
15:46 22.3 °C 6.5 °C 1017.8 hPa SSW 7.2 km/h 7.2 km/h 36 % 0.0 mm
15:51 22.3 °C 6.5 °C 1017.8 hPa SW 14.8 km/h 14.8 km/h 36 % 0.0 mm
15:56 22.3 °C 6.1 °C 1017.8 hPa SSW 16.7 km/h 16.7 km/h 35 % 0.0 mm
16:01 22.3 °C 6.5 °C 1017.8 hPa WSW 9.3 km/h 9.5 km/h 36 % 0.0 mm
16:06 22.5 °C 5.8 °C 1017.8 hPa South 3.7 km/h 3.7 km/h 34 % 0.0 mm
16:11 22.9 °C 7.1 °C 1017.8 hPa WSW 12.6 km/h 12.6 km/h 36 % 0.0 mm
16:16 22.5 °C 5.8 °C 1017.8 hPa ESE 13.0 km/h 13.0 km/h 34 % 0.0 mm
16:21 22.8 °C 6.9 °C 1017.8 hPa SSW 14.8 km/h 14.8 km/h 36 % 0.0 mm
16:26 22.9 °C 6.6 °C 1016.8 hPa SW 11.1 km/h 11.1 km/h 35 % 0.0 mm
16:31 23.2 °C 6.4 °C 1016.8 hPa West 9.5 km/h 9.5 km/h 34 % 0.0 mm
16:36 23.2 °C 6.9 °C 1016.8 hPa SSW 13.0 km/h 13.0 km/h 35 % 0.0 mm
16:41 23.2 °C 6.4 °C 1016.8 hPa SW 9.3 km/h 9.3 km/h 34 % 0.0 mm
16:46 23.2 °C 6.4 °C 1016.8 hPa SW 14.8 km/h 14.8 km/h 34 % 0.0 mm
16:51 23.1 °C 6.4 °C 1016.8 hPa WSW 9.3 km/h 9.3 km/h 34 % 0.0 mm
16:56 22.9 °C 7.1 °C 1016.8 hPa SSE 9.3 km/h 9.3 km/h 36 % 0.0 mm
17:01 22.6 °C 6.3 °C 1016.8 hPa SW 11.1 km/h 11.1 km/h 35 % 0.0 mm
17:06 22.4 °C 5.8 °C 1016.8 hPa SSE 9.5 km/h 9.5 km/h 34 % 0.0 mm
17:11 22.6 °C 6.3 °C 1016.8 hPa SSW 5.8 km/h 5.8 km/h 35 % 0.0 mm
17:16 22.5 °C 6.3 °C 1016.8 hPa SSW 9.3 km/h 9.3 km/h 35 % 0.0 mm
17:21 22.4 °C 6.2 °C 1016.8 hPa SSW 13.0 km/h 13.0 km/h 35 % 0.0 mm
17:26 22.6 °C 6.3 °C 1016.8 hPa SW 15.8 km/h 15.8 km/h 35 % 0.0 mm
17:31 22.8 °C 6.6 °C 1016.8 hPa SW 13.0 km/h 13.0 km/h 35 % 0.0 mm
17:36 22.9 °C 6.6 °C 1016.8 hPa SSW 18.5 km/h 18.5 km/h 35 % 0.0 mm
17:41 22.5 °C 6.3 °C 1017.8 hPa SW 10.3 km/h 10.3 km/h 35 % 0.0 mm
17:46 22.4 °C 5.8 °C 1017.8 hPa SSW 11.1 km/h 11.1 km/h 34 % 0.0 mm
17:51 22.7 °C 6.0 °C 1017.8 hPa South 9.3 km/h 9.3 km/h 34 % 0.0 mm
17:56 22.9 °C 6.6 °C 1016.8 hPa WSW 6.4 km/h 6.4 km/h 35 % 0.0 mm
18:01 22.8 °C 6.1 °C 1016.8 hPa SW 13.0 km/h 13.0 km/h 34 % 0.0 mm
18:02 22.6 °C 5.9 °C 1016.8 hPa WSW 13.0 km/h 13.0 km/h 34 % 0.0 mm
18:07 22.8 °C 6.6 °C 1016.8 hPa SW 11.1 km/h 11.1 km/h 35 % 0.0 mm
18:12 22.5 °C 5.8 °C 1016.8 hPa WSW 11.1 km/h 11.1 km/h 34 % 0.0 mm
18:17 22.5 °C 5.4 °C 1016.8 hPa SW 7.4 km/h 7.4 km/h 33 % 0.0 mm
18:22 22.6 °C 5.1 °C 1016.8 hPa NNW 9.3 km/h 9.3 km/h 32 % 0.0 mm
18:27 22.6 °C 4.6 °C 1016.8 hPa WSW 7.4 km/h 7.4 km/h 31 % 0.0 mm
18:32 22.6 °C 4.6 °C 1016.8 hPa West 11.1 km/h 11.1 km/h 31 % 0.0 mm
18:37 22.3 °C 3.9 °C 1016.8 hPa West 7.4 km/h 7.4 km/h 30 % 0.0 mm
18:42 22.2 °C 3.8 °C 1016.8 hPa WNW 10.0 km/h 10.0 km/h 30 % 0.0 mm
18:47 22.3 °C 3.9 °C 1016.8 hPa SW 13.0 km/h 13.0 km/h 30 % 0.0 mm
18:52 22.6 °C 4.1 °C 1016.8 hPa WSW 7.4 km/h 7.4 km/h 30 % 0.0 mm
18:57 22.5 °C 4.1 °C 1017.8 hPa West 9.3 km/h 9.3 km/h 30 % 0.0 mm
19:02 22.1 °C 3.7 °C 1017.8 hPa West 7.4 km/h 7.4 km/h 30 % 0.0 mm
19:07 22.0 °C 3.1 °C 1017.8 hPa SW 13.0 km/h 13.0 km/h 29 % 0.0 mm
19:10 14.7 °C 7.9 °C 1019.9 hPa ENE 1.6 km/h 1.6 km/h 64 % 0.0 mm
19:12 21.9 °C 3.1 °C 1017.8 hPa North 13.0 km/h 13.0 km/h 29 % 0.0 mm
19:17 21.6 °C 2.8 °C 1017.8 hPa West 14.8 km/h 14.8 km/h 29 % 0.0 mm
19:20 14.6 °C 8.1 °C 1019.9 hPa NE 1.6 km/h 3.2 km/h 65 % 0.0 mm
19:22 21.4 °C 2.6 °C 1017.8 hPa NNW 13.0 km/h 13.0 km/h 29 % 0.0 mm
19:27 21.3 °C 2.6 °C 1017.8 hPa WSW 9.3 km/h 9.3 km/h 29 % 0.0 mm
19:30 14.6 °C 8.1 °C 1019.9 hPa Calm   1.6 km/h 65 % 0.0 mm
19:32 21.3 °C 2.6 °C 1017.8 hPa SSW 10.3 km/h 10.3 km/h 29 % 0.0 mm
19:37 21.1 °C 1.9 °C 1017.8 hPa WSW 9.3 km/h 9.3 km/h 28 % 0.0 mm
19:40 14.5 °C 8.2 °C 1019.9 hPa ENE 3.2 km/h 4.8 km/h 66 % 0.0 mm
19:42 21.1 °C 2.3 °C 1017.8 hPa WSW 9.3 km/h 9.3 km/h 29 % 0.0 mm
19:47 21.0 °C 2.3 °C 1017.8 hPa WNW 15.6 km/h 15.6 km/h 29 % 0.0 mm
19:50 14.5 °C 8.4 °C 1019.9 hPa ENE 1.6 km/h 3.2 km/h 67 % 0.0 mm
19:52 20.9 °C 2.2 °C 1017.8 hPa West 9.3 km/h 9.3 km/h 29 % 0.0 mm
19:57 20.7 °C 2.0 °C 1017.8 hPa SW 5.6 km/h 5.6 km/h 29 % 0.0 mm
20:00 14.3 °C 8.1 °C 1020.9 hPa Calm   1.6 km/h 66 % 0.0 mm
20:02 20.5 °C 1.8 °C 1017.8 hPa WSW 11.1 km/h 11.1 km/h 29 % 0.0 mm
20:07 20.4 °C 1.8 °C 1017.8 hPa West 7.4 km/h 7.4 km/h 29 % 0.0 mm
20:10 14.3 °C 8.4 °C 1019.9 hPa NE 1.6 km/h 3.2 km/h 68 % 0.0 mm
20:12 20.3 °C 1.7 °C 1017.8 hPa WSW 3.7 km/h 3.7 km/h 29 % 0.0 mm
20:17 20.1 °C 1.5 °C 1017.8 hPa WSW 8.7 km/h 8.7 km/h 29 % 0.0 mm
20:20 14.3 °C 8.4 °C 1019.9 hPa NE 1.6 km/h 3.2 km/h 68 % 0.0 mm
20:22 19.9 °C 1.8 °C 1017.8 hPa West 5.6 km/h 5.6 km/h 30 % 0.0 mm
20:27 19.8 °C 1.7 °C 1016.8 hPa WSW 9.3 km/h 9.3 km/h 30 % 0.0 mm
20:30 14.3 °C 8.7 °C 1019.9 hPa ENE 3.2 km/h 4.8 km/h 69 % 0.0 mm
20:32 19.7 °C 1.6 °C 1016.8 hPa WSW 5.6 km/h 5.6 km/h 30 % 0.0 mm
20:37 19.5 °C 1.4 °C 1016.8 hPa WNW 3.7 km/h 3.7 km/h 30 % 0.0 mm
20:40 14.1 °C 8.7 °C 1020.9 hPa NE 1.6 km/h 4.8 km/h 70 % 0.0 mm
20:42 19.4 °C 1.4 °C 1018.8 hPa NNW 5.6 km/h 5.6 km/h 30 % 0.0 mm
20:47 19.3 °C 1.3 °C 1018.8 hPa WSW 5.6 km/h 5.6 km/h 30 % 0.0 mm
20:50 14.1 °C 8.7 °C 1020.9 hPa NE 4.8 km/h 4.8 km/h 70 % 0.0 mm
20:52 19.1 °C 1.1 °C 1018.8 hPa Calm     30 % 0.0 mm
20:57 19.0 °C 1.0 °C 1017.8 hPa WNW 3.7 km/h 3.7 km/h 30 % 0.0 mm
21:00 14.2 °C 9.4 °C 1020.9 hPa ENE 9.7 km/h 9.7 km/h 73 % 0.0 mm
21:02 18.8 °C 0.8 °C 1017.8 hPa Calm     30 % 0.0 mm
21:07 18.5 °C 1.1 °C 1017.8 hPa NNE 9.3 km/h 9.3 km/h 31 % 0.0 mm
21:10 14.1 °C 9.6 °C 1020.9 hPa ENE 9.7 km/h 11.3 km/h 74 % 0.0 mm
21:12 18.2 °C 1.7 °C 1017.8 hPa NE 9.3 km/h 9.3 km/h 33 % 0.0 mm
21:17 17.8 °C 2.1 °C 1017.8 hPa NE 9.3 km/h 9.3 km/h 35 % 0.0 mm
21:20 14.0 °C 9.6 °C 1020.9 hPa ENE 4.8 km/h 12.9 km/h 75 % 0.0 mm
21:22 17.5 °C 3.0 °C 1017.8 hPa NNE 6.9 km/h 6.9 km/h 38 % 0.0 mm
21:27 17.2 °C 3.8 °C 1018.8 hPa ENE 13.0 km/h 13.0 km/h 41 % 0.0 mm
21:30 14.0 °C 9.4 °C 1020.9 hPa East 8.0 km/h 12.9 km/h 74 % 0.0 mm
21:32 16.9 °C 4.9 °C 1018.8 hPa NNE 11.1 km/h 11.1 km/h 45 % 0.0 mm
21:37 16.7 °C 5.0 °C 1018.8 hPa ENE 7.4 km/h 7.4 km/h 46 % 0.0 mm
21:40 13.9 °C 9.1 °C 1021.9 hPa East 8.0 km/h 12.9 km/h 73 % 0.0 mm
21:42 16.5 °C 5.7 °C 1019.9 hPa ENE 11.1 km/h 11.1 km/h 49 % 0.0 mm
21:47 16.3 °C 5.8 °C 1019.9 hPa North 7.4 km/h 7.4 km/h 50 % 0.0 mm
21:50 13.9 °C 8.9 °C 1021.9 hPa East 4.8 km/h 8.0 km/h 72 % 0.0 mm
21:52 16.2 °C 6.1 °C 1019.9 hPa ENE 13.0 km/h 13.0 km/h 51 % 0.0 mm
21:57 16.1 °C 6.2 °C 1019.9 hPa NNE 7.4 km/h 7.4 km/h 52 % 0.0 mm
22:00 13.8 °C 8.6 °C 1021.9 hPa ENE 4.8 km/h 8.0 km/h 71 % 0.0 mm
22:02 16.0 °C 6.2 °C 1019.9 hPa ESE 9.5 km/h 9.5 km/h 52 % 0.0 mm
22:07 16.0 °C 6.4 °C 1019.9 hPa ENE 7.4 km/h 7.4 km/h 53 % 0.0 mm
22:10 13.7 °C 8.7 °C 1020.9 hPa ENE 4.8 km/h 9.7 km/h 72 % 0.0 mm
22:12 15.9 °C 6.6 °C 1019.9 hPa ENE 3.9 km/h 3.9 km/h 54 % 0.0 mm
22:17 15.9 °C 6.6 °C 1019.9 hPa NE 7.4 km/h 7.4 km/h 54 % 0.0 mm
22:20 13.5 °C 8.6 °C 1020.9 hPa ENE 3.2 km/h 8.0 km/h 72 % 0.0 mm
22:22 15.8 °C 6.8 °C 1019.9 hPa East 11.4 km/h 11.4 km/h 55 % 0.0 mm
22:27 15.7 °C 6.9 °C 1019.9 hPa NNE 9.3 km/h 9.3 km/h 56 % 0.0 mm
22:32 15.6 °C 7.1 °C 1019.9 hPa ENE 7.4 km/h 7.4 km/h 57 % 0.0 mm
22:37 15.6 °C 7.1 °C 1018.8 hPa East 7.4 km/h 7.4 km/h 57 % 0.0 mm
22:40 13.2 °C 8.1 °C 1021.9 hPa NE 4.8 km/h 4.8 km/h 71 % 0.0 mm
22:42 15.6 °C 7.1 °C 1018.8 hPa NNE 5.6 km/h 5.6 km/h 57 % 0.0 mm
22:47 15.4 °C 7.2 °C 1018.8 hPa ESE 5.3 km/h 5.3 km/h 58 % 0.0 mm
22:50 13.1 °C 7.9 °C 1021.9 hPa NE 3.2 km/h 4.8 km/h 71 % 0.0 mm
22:52 15.4 °C 7.4 °C 1019.9 hPa ENE 7.4 km/h 7.4 km/h 59 % 0.0 mm
23:00 13.1 °C 7.7 °C 1021.9 hPa NNE 4.8 km/h 4.8 km/h 70 % 0.0 mm
23:02 15.3 °C 7.3 °C 1019.9 hPa East 5.6 km/h 5.6 km/h 59 % 0.0 mm
23:07 15.2 °C 7.2 °C 1018.8 hPa ENE 5.6 km/h 5.6 km/h 59 % 0.0 mm
23:10 12.8 °C 7.4 °C 1021.9 hPa NNE 1.6 km/h 4.8 km/h 70 % 0.0 mm
23:12 15.1 °C 7.4 °C 1018.8 hPa ENE 6.1 km/h 6.1 km/h 60 % 0.0 mm
23:17 15.1 °C 7.4 °C 1018.8 hPa ENE 7.4 km/h 7.4 km/h 60 % 0.0 mm
23:20 12.8 °C 7.4 °C 1021.9 hPa NE 4.8 km/h 4.8 km/h 70 % 0.0 mm
23:22 15.1 °C 7.6 °C 1019.9 hPa NNE 11.1 km/h 11.1 km/h 61 % 0.0 mm
23:27 15.0 °C 7.6 °C 1019.9 hPa NE 5.6 km/h 5.6 km/h 61 % 0.0 mm
23:30 12.7 °C 7.2 °C 1021.9 hPa North 1.6 km/h 3.2 km/h 69 % 0.0 mm
23:32 15.0 °C 7.8 °C 1019.9 hPa NNE 7.4 km/h 7.4 km/h 62 % 0.0 mm
23:37 15.0 °C 7.8 °C 1019.9 hPa ENE 5.6 km/h 5.6 km/h 62 % 0.0 mm
23:40 12.8 °C 7.4 °C 1021.9 hPa North 1.6 km/h 4.8 km/h 70 % 0.0 mm
23:42 14.9 °C 7.7 °C 1019.9 hPa NE 7.4 km/h 7.4 km/h 62 % 0.0 mm
23:47 14.9 °C 7.7 °C 1019.9 hPa NNE 7.4 km/h 7.4 km/h 62 % 0.0 mm
23:50 12.8 °C 7.3 °C 1021.9 hPa NNW 4.8 km/h 8.0 km/h 69 % 0.0 mm
23:52 14.8 °C 7.8 °C 1019.9 hPa ENE 5.6 km/h 5.6 km/h 63 % 0.0 mm
23:57 14.8 °C 7.8 °C 1019.9 hPa East 5.6 km/h 5.6 km/h 63 % 0.0 mm
Meteo Sesrovires
Elogis d' Weather Underground - 3.75 mb

Guio original per  Jim McMurry - jmcmurry@mwt.net Adaptat per a la plantilla per  Wim van der Kuil - Leuven-Template.eu

Trobareu la nostra informacio del temps tambe a:

Weather Underground

AWEKAS